Terminal Aerodrome Forecast
Issued by NWS Cleveland, OH

Home | Current Version | Previous Version | Text Only | Print | Product List | Glossary On
Versions: 1 2 3 4 5 6 7 8 9 10 11 12 13 14 15 16 17
000
FTUS41 KCLE 281100
TAFTOL
TAF
KTOL 281120Z 2812/0112 18003KT P6SM BKN200
     FM281700 18006KT P6SM OVC100
     FM010000 14003KT P6SM SCT025 OVC040
     FM010500 12003KT 1 1/2SM -SN BR SCT008 OVC012
     FM010800 10003KT 3/4SM -SN BR OVC008=

USA.gov is the U.S. government's official web portal to all federal, state and local government web resources and services.